Airfield :







YOU CAN JOIN US ON...

 
LOGIN :

Register | Disclaimer

   EN    FR    IT 

 









Legend :    VFR   Marginal VFR   IFR   Intensive IFR   Very Intensive IFR
Visi :
Ceiling :
>= 8 km
>= 3000ft
5 to 8 km
1000 to 3000 ft
1500m to 5 km
500 to 1000 ft
800 to 1500m
200 to 500 ft
< 800m
< 200 ft
Symbols :   Thunderstorms  Fog  Heavy snow  Heavy precipitations  Wind > 20 kt






- Airport Elevation : 198 ft
- IATA code : STM


SBSN - Maestro Wilson Fonseca Int.

CURRENT METAR :
  • 250100Z 14004KT CAVOK 26/25 Q1011

EXPIRED METARs :
  • 250000Z 12004KT CAVOK 27/25 Q1010
  • 242300Z 11005KT CAVOK 29/25 Q1009

TAF TAF SBSN
Valid from the 25 at 00:00 until the 26 at 00:00 UTC


242020Z 2500/2524 08005KT 8000 BKN020 FEW030TCU TN26/2509Z TX31/2519Z
TEMPO 2502/2510 14015KT 4000 TSRA BKN015 FEW020CB
BECMG 2511/2513 10010KT 9999 SCT017
BECMG 2515/2517 BKN020 FEW030TCU
PROB40 2518/2521 7000 TS BKN015 FEW025CB
BECMG 2521/2523 11005KT FEW025 RMK PGB
SBAZ FIR / South America



MET'MAP, your aeronautical weather chart ! - Copyright ORBIFLY December 2007 - Disclaimer

ORBIFLY MET'MAP TEAM :

Programming & Development : Alexandra Zaïnal
Concept & original design : Baudouin d'Aumeries
Assistance for programming : Marc-Olivier Méhu
Technical & hardware support : Manuel Goepfert

Contact : metmap@orbifly.com




SOURCES & CREDITS :

   NOAA